Time;durP1;ratioP1;P1;durP2;ratioP2;P2;SDS_P1;SDS_P2;PMS_P1;PMS_P2;Temp;Humidity;BMP_temperature;BMP_pressure;BME280_temperature;BME280_humidity;BME280_pressure;Samples;Min_cycle;Max_cycle;Signal;HPM_P1;HPM_P2
2024/01/04 00:00:23;;;;;;;1999.90;999.90;;;6.50;99.90;;;;;;4999253;28;20134;-76
2024/01/04 00:02:52;;;;;;;1999.90;999.90;;;6.50;99.90;;;;;;5000716;28;20122;-76
2024/01/04 00:05:18;;;;;;;1999.90;999.90;;;6.60;99.90;;;;;;4983385;28;20038;-76
2024/01/04 00:07:44;;;;;;;1999.90;999.90;;;6.50;99.90;;;;;;5002496;28;20557;-77
2024/01/04 00:10:10;;;;;;;1999.90;999.90;;;6.50;99.90;;;;;;5001255;28;20030;-76
2024/01/04 00:12:36;;;;;;;1999.90;999.90;;;6.50;99.90;;;;;;5004312;28;20081;-78
2024/01/04 00:15:03;;;;;;;1999.90;999.90;;;6.50;99.90;;;;;;4987673;28;20414;-78
2024/01/04 00:17:29;;;;;;;1999.90;999.90;;;6.40;99.90;;;;;;5002380;28;20049;-77
2024/01/04 00:19:55;;;;;;;1999.90;999.90;;;6.50;99.90;;;;;;5002905;28;20070;-77
2024/01/04 00:22:21;;;;;;;1999.90;999.90;;;6.50;99.90;;;;;;4987805;28;20147;-77
2024/01/04 00:24:46;;;;;;;1999.90;999.90;;;6.50;99.90;;;;;;5005688;28;20113;-77
2024/01/04 00:27:12;;;;;;;1999.90;999.90;;;6.40;99.90;;;;;;4988555;28;20145;-77
2024/01/04 00:29:38;;;;;;;1999.90;999.90;;;6.40;99.90;;;;;;5000280;28;20418;-77
2024/01/04 00:32:04;;;;;;;1999.90;999.90;;;6.50;99.90;;;;;;5000107;28;20499;-77
2024/01/04 00:34:29;;;;;;;1999.90;999.90;;;6.40;99.90;;;;;;5006743;28;20128;-77
2024/01/04 00:36:57;;;;;;;1999.90;999.90;;;6.40;99.90;;;;;;5001992;28;20117;-77
2024/01/04 00:39:24;;;;;;;1999.90;999.90;;;6.40;99.90;;;;;;4987373;28;20064;-77
2024/01/04 00:41:51;;;;;;;1999.90;999.90;;;6.40;99.90;;;;;;5005067;28;20248;-77
2024/01/04 00:44:17;;;;;;;1999.90;999.90;;;6.30;99.90;;;;;;5005183;28;20098;-77
2024/01/04 00:46:42;;;;;;;1999.90;999.90;;;6.50;99.90;;;;;;5002784;28;20392;-78
2024/01/04 00:49:08;;;;;;;1999.90;999.90;;;6.50;99.90;;;;;;4985961;28;20303;-76
2024/01/04 00:51:34;;;;;;;1999.90;999.90;;;6.30;99.90;;;;;;5002504;28;20046;-77
2024/01/04 00:53:59;;;;;;;1999.90;999.90;;;6.40;99.90;;;;;;5002927;28;20056;-77
2024/01/04 00:56:31;;;;;;;1999.90;999.90;;;6.30;99.90;;;;;;5000389;28;20038;-77
2024/01/04 00:58:56;;;;;;;1999.90;999.90;;;6.30;99.90;;;;;;5000908;28;20065;-76
2024/01/04 01:01:22;;;;;;;1999.90;999.90;;;6.30;99.90;;;;;;4985270;28;20449;-77
2024/01/04 01:03:47;;;;;;;1999.90;999.90;;;6.30;99.90;;;;;;5001360;28;20057;-77
2024/01/04 01:06:13;;;;;;;1999.90;999.90;;;6.30;99.90;;;;;;4986471;28;20193;-77
2024/01/04 01:08:39;;;;;;;1999.90;999.90;;;6.30;99.90;;;;;;4985387;28;20061;-78
2024/01/04 01:11:04;;;;;;;1999.90;999.90;;;6.30;99.90;;;;;;5004770;28;20099;-77
2024/01/04 01:13:30;;;;;;;1999.90;999.90;;;6.20;99.90;;;;;;5004126;28;20143;-77
2024/01/04 01:15:56;;;;;;;1999.90;999.90;;;6.30;99.90;;;;;;5004514;28;20038;-77
2024/01/04 01:18:21;;;;;;;1999.90;999.90;;;6.20;99.90;;;;;;4999795;28;20133;-76
2024/01/04 01:20:47;;;;;;;1999.90;999.90;;;6.20;99.90;;;;;;5003149;28;20061;-77
2024/01/04 01:23:12;;;;;;;1999.90;999.90;;;6.20;99.90;;;;;;4984841;28;20505;-77
2024/01/04 01:25:38;;;;;;;1999.90;999.90;;;6.20;99.90;;;;;;5001005;28;20042;-77
2024/01/04 01:28:04;;;;;;;1999.90;999.90;;;6.20;99.90;;;;;;4982537;28;20030;-77
2024/01/04 01:30:29;;;;;;;1999.90;999.90;;;6.10;99.90;;;;;;4987226;28;20255;-77
2024/01/04 01:32:55;;;;;;;1999.90;999.90;;;6.20;99.90;;;;;;5001359;28;20301;-78
2024/01/04 01:35:21;;;;;;;1999.90;999.90;;;6.10;99.90;;;;;;5001949;28;20050;-77
2024/01/04 01:37:47;;;;;;;1999.90;999.90;;;6.10;99.90;;;;;;4999178;28;20061;-76
2024/01/04 01:40:12;;;;;;;1999.90;999.90;;;6.00;99.90;;;;;;5002392;28;20046;-76
2024/01/04 01:42:38;;;;;;;1999.90;999.90;;;6.00;99.90;;;;;;4987330;28;20053;-77
2024/01/04 01:45:04;;;;;;;1999.90;999.90;;;6.00;99.90;;;;;;5003338;28;20034;-76
2024/01/04 01:47:30;;;;;;;1999.90;999.90;;;6.00;99.90;;;;;;4983287;28;20037;-77
2024/01/04 01:49:56;;;;;;;1999.90;999.90;;;6.40;99.90;;;;;;4984411;28;20038;-77
2024/01/04 01:52:22;;;;;;;1999.90;999.90;;;6.20;99.90;;;;;;5003215;28;20487;-77
2024/01/04 01:54:49;;;;;;;1999.90;999.90;;;6.00;99.90;;;;;;5001140;28;20052;-78
2024/01/04 01:57:15;;;;;;;1999.90;999.90;;;6.00;99.90;;;;;;4986159;28;20037;-77
2024/01/04 01:59:43;;;;;;;1999.90;999.90;;;6.00;99.90;;;;;;4999435;28;20034;-77
2024/01/04 02:02:09;;;;;;;1999.90;999.90;;;5.90;99.90;;;;;;4999603;28;20041;-76
2024/01/04 02:04:35;;;;;;;1999.90;999.90;;;6.00;99.90;;;;;;5003246;28;20034;-77
2024/01/04 02:07:01;;;;;;;1999.90;999.90;;;6.00;99.90;;;;;;4985988;28;20064;-77
2024/01/04 02:09:27;;;;;;;1999.90;999.90;;;5.90;99.90;;;;;;4985130;28;20046;-76
2024/01/04 02:12:05;;;;;;;1999.90;999.90;;;5.90;99.90;;;;;;5003724;28;20064;-77
2024/01/04 02:14:31;;;;;;;1999.90;999.90;;;5.90;99.90;;;;;;5001523;28;20054;-77
2024/01/04 02:16:57;;;;;;;1999.90;999.90;;;5.90;99.90;;;;;;5000049;28;20157;-77
2024/01/04 02:19:24;;;;;;;1999.90;999.90;;;5.90;99.90;;;;;;5001186;28;20569;-77
2024/01/04 02:21:49;;;;;;;1999.90;999.90;;;5.90;99.90;;;;;;5004684;28;20095;-77
2024/01/04 02:24:15;;;;;;;1999.90;999.90;;;5.90;99.90;;;;;;5002897;28;20120;-77
2024/01/04 02:26:40;;;;;;;1999.90;999.90;;;5.90;99.90;;;;;;5002043;28;20237;-77
2024/01/04 02:29:06;;;;;;;1999.90;999.90;;;5.80;99.90;;;;;;5002822;28;20049;-77
2024/01/04 02:31:32;;;;;;;1999.90;999.90;;;5.80;99.90;;;;;;5000553;28;20458;-77
2024/01/04 02:33:57;;;;;;;1999.90;999.90;;;5.80;99.90;;;;;;5003458;28;20042;-77
2024/01/04 02:36:24;;;;;;;1999.90;999.90;;;5.70;99.90;;;;;;4986741;28;20042;-77
2024/01/04 02:38:50;;;;;;;1999.90;999.90;;;5.70;99.90;;;;;;5002861;28;20046;-77
2024/01/04 02:41:15;;;;;;;1999.90;999.90;;;5.60;99.90;;;;;;4982183;28;20126;-78
2024/01/04 02:43:41;;;;;;;1999.90;999.90;;;5.60;99.90;;;;;;4982228;28;20568;-78
2024/01/04 02:46:06;;;;;;;1999.90;999.90;;;5.50;99.90;;;;;;5001003;28;20121;-78
2024/01/04 02:48:32;;;;;;;1999.90;999.90;;;5.50;99.90;;;;;;5000075;28;20124;-77
2024/01/04 02:50:58;;;;;;;1999.90;999.90;;;6.10;99.90;;;;;;4986184;28;20125;-77
2024/01/04 02:53:24;;;;;;;1999.90;999.90;;;5.40;99.90;;;;;;5002892;28;20062;-76
2024/01/04 02:55:49;;;;;;;1999.90;999.90;;;5.40;99.90;;;;;;4982960;28;20039;-78
2024/01/04 02:58:15;;;;;;;1999.90;999.90;;;5.30;99.90;;;;;;4982886;28;20045;-77
2024/01/04 03:00:41;;;;;;;1999.90;999.90;;;5.30;99.90;;;;;;5001220;28;20131;-77
2024/01/04 03:03:06;;;;;;;1999.90;999.90;;;5.20;99.90;;;;;;4985213;28;20395;-77
2024/01/04 03:05:32;;;;;;;1999.90;999.90;;;5.20;99.90;;;;;;5001829;28;20042;-77
2024/01/04 03:07:58;;;;;;;1999.90;999.90;;;5.20;99.90;;;;;;5001874;28;20390;-77
2024/01/04 03:10:24;;;;;;;1999.90;999.90;;;5.20;99.90;;;;;;4985352;28;20037;-77
2024/01/04 03:12:50;;;;;;;1999.90;999.90;;;5.20;99.90;;;;;;4999042;28;20426;-78
2024/01/04 03:15:15;;;;;;;1999.90;999.90;;;5.10;99.90;;;;;;5001645;28;20127;-77
2024/01/04 03:17:41;;;;;;;1999.90;999.90;;;5.10;99.90;;;;;;4999305;28;20125;-78
2024/01/04 03:20:07;;;;;;;1999.90;999.90;;;5.10;99.90;;;;;;5001267;28;20040;-77
2024/01/04 03:22:33;;;;;;;1999.90;999.90;;;5.00;99.90;;;;;;5001728;28;20045;-77
2024/01/04 03:24:58;;;;;;;1999.90;999.90;;;5.00;99.90;;;;;;4985276;28;20117;-77
2024/01/04 03:27:24;;;;;;;1999.90;999.90;;;5.00;99.90;;;;;;4981863;28;20064;-77
2024/01/04 03:29:50;;;;;;;1999.90;999.90;;;5.00;99.90;;;;;;4985648;28;20510;-78
2024/01/04 03:32:19;;;;;;;1999.90;999.90;;;5.00;99.90;;;;;;4999367;28;20042;-76
2024/01/04 03:34:45;;;;;;;1999.90;999.90;;;5.00;99.90;;;;;;4983901;28;20068;-78
2024/01/04 03:37:10;;;;;;;1999.90;999.90;;;5.00;99.90;;;;;;4982309;28;20034;-77
2024/01/04 03:39:36;;;;;;;1999.90;999.90;;;5.00;99.90;;;;;;5001530;28;20034;-77
2024/01/04 03:42:01;;;;;;;1999.90;999.90;;;5.00;99.90;;;;;;4998451;28;20035;-78
2024/01/04 03:44:27;;;;;;;1999.90;999.90;;;5.10;99.90;;;;;;5004309;28;20053;-78
2024/01/04 03:46:52;;;;;;;1999.90;999.90;;;4.80;99.90;;;;;;5003075;28;20125;-77
2024/01/04 03:49:18;;;;;;;1999.90;999.90;;;4.90;99.90;;;;;;5005451;28;20072;-77
2024/01/04 03:51:43;;;;;;;1999.90;999.90;;;5.40;99.90;;;;;;5007327;28;20188;-77
2024/01/04 03:54:09;;;;;;;1999.90;999.90;;;4.90;99.90;;;;;;5008722;28;20490;-77
2024/01/04 03:56:34;;;;;;;1999.90;999.90;;;4.90;99.90;;;;;;5004776;28;20042;-78
2024/01/04 03:59:00;;;;;;;1999.90;999.90;;;4.90;99.90;;;;;;5006578;28;20169;-76
2024/01/04 04:01:26;;;;;;;1999.90;999.90;;;4.90;99.90;;;;;;5006799;28;20049;-76
2024/01/04 04:03:51;;;;;;;1999.90;999.90;;;4.90;99.90;;;;;;5005465;28;20483;-77
2024/01/04 04:06:20;;;;;;;1999.90;999.90;;;4.90;99.90;;;;;;5007420;28;20038;-77
2024/01/04 04:08:46;;;;;;;1999.90;999.90;;;4.90;99.90;;;;;;5004391;28;20030;-76
2024/01/04 04:11:18;;;;;;;1999.90;999.90;;;4.80;99.90;;;;;;4991596;28;20100;-76
2024/01/04 04:13:44;;;;;;;1999.90;999.90;;;4.80;99.90;;;;;;5006037;28;20047;-76
2024/01/04 04:16:09;;;;;;;1999.90;999.90;;;4.70;99.90;;;;;;5007813;28;20041;-76
2024/01/04 04:18:35;;;;;;;1999.90;999.90;;;4.70;99.90;;;;;;5007500;28;20141;-77
2024/01/04 04:21:01;;;;;;;1999.90;999.90;;;4.70;99.90;;;;;;5007776;28;20042;-77
2024/01/04 04:23:27;;;;;;;1999.90;999.90;;;4.70;99.90;;;;;;5007366;28;20093;-77
2024/01/04 04:25:53;;;;;;;1999.90;999.90;;;4.60;99.90;;;;;;5007446;28;20064;-77
2024/01/04 04:28:18;;;;;;;1999.90;999.90;;;4.60;99.90;;;;;;5004532;28;20483;-76
2024/01/04 04:30:44;;;;;;;1999.90;999.90;;;4.50;99.90;;;;;;4988544;28;20049;-76
2024/01/04 04:33:09;;;;;;;1999.90;999.90;;;4.50;99.90;;;;;;4992614;28;20457;-76
2024/01/04 04:35:36;;;;;;;1999.90;999.90;;;4.40;99.90;;;;;;5006022;28;20081;-76
2024/01/04 04:38:02;;;;;;;1999.90;999.90;;;4.40;99.90;;;;;;5006398;28;20076;-77
2024/01/04 04:40:27;;;;;;;1999.90;999.90;;;4.40;99.90;;;;;;5004323;28;20046;-77
2024/01/04 04:42:53;;;;;;;1999.90;999.90;;;4.70;99.90;;;;;;5003883;28;20543;-77
2024/01/04 04:45:18;;;;;;;1999.90;999.90;;;4.30;99.90;;;;;;4991597;28;20034;-77
2024/01/04 04:47:44;;;;;;;1999.90;999.90;;;4.30;99.90;;;;;;5010567;28;20084;-77
2024/01/04 04:50:10;;;;;;;1999.90;999.90;;;4.40;99.90;;;;;;5007645;28;20145;-77
2024/01/04 04:52:35;;;;;;;1999.90;999.90;;;4.40;99.90;;;;;;5006816;28;20100;-77
2024/01/04 04:55:01;;;;;;;1999.90;999.90;;;4.50;99.90;;;;;;5007113;28;20046;-76
2024/01/04 04:57:27;;;;;;;1999.90;999.90;;;4.50;99.90;;;;;;5003022;28;20495;-77
2024/01/04 04:59:52;;;;;;;1999.90;999.90;;;4.50;99.90;;;;;;5002750;28;20038;-77
2024/01/04 05:02:18;;;;;;;1999.90;999.90;;;4.60;99.90;;;;;;5003671;28;20434;-77
2024/01/04 05:04:44;;;;;;;1999.90;999.90;;;4.60;99.90;;;;;;5002311;28;20044;-77
2024/01/04 05:07:10;;;;;;;1999.90;999.90;;;4.60;99.90;;;;;;5000964;28;20073;-76
2024/01/04 05:09:35;;;;;;;1999.90;999.90;;;4.60;99.90;;;;;;4984718;28;20070;-77
2024/01/04 05:12:01;;;;;;;1999.90;999.90;;;4.60;99.90;;;;;;5002866;28;20049;-76
2024/01/04 05:14:27;;;;;;;1999.90;999.90;;;4.60;99.90;;;;;;5000900;28;20053;-76
2024/01/04 05:16:53;;;;;;;1999.90;999.90;;;4.60;99.90;;;;;;5003618;28;20046;-77
2024/01/04 05:19:18;;;;;;;1999.90;999.90;;;4.60;99.90;;;;;;4999488;28;20133;-76
2024/01/04 05:21:44;;;;;;;1999.90;999.90;;;4.50;99.90;;;;;;4985659;28;20034;-77
2024/01/04 05:24:09;;;;;;;1999.90;999.90;;;4.50;99.90;;;;;;4999946;28;20088;-77
2024/01/04 05:26:35;;;;;;;1999.90;999.90;;;4.50;99.90;;;;;;5002406;28;20038;-76
2024/01/04 05:29:00;;;;;;;1999.90;999.90;;;4.50;99.90;;;;;;4999773;28;20093;-76
2024/01/04 05:31:26;;;;;;;1999.90;999.90;;;4.50;99.90;;;;;;4999204;28;20046;-77
2024/01/04 05:33:52;;;;;;;1999.90;999.90;;;4.40;99.90;;;;;;5001716;28;20043;-76
2024/01/04 05:36:17;;;;;;;1999.90;999.90;;;4.40;99.90;;;;;;5000552;28;20049;-77
2024/01/04 05:38:43;;;;;;;1999.90;999.90;;;4.40;99.90;;;;;;5003840;28;20030;-76
2024/01/04 05:41:09;;;;;;;1999.90;999.90;;;4.40;99.90;;;;;;4982191;28;20065;-76
2024/01/04 05:43:35;;;;;;;1999.90;999.90;;;4.30;99.90;;;;;;5002713;28;20441;-76
2024/01/04 05:46:04;;;;;;;1999.90;999.90;;;4.30;99.90;;;;;;4999983;28;20042;-77
2024/01/04 05:48:30;;;;;;;1999.90;999.90;;;4.20;99.90;;;;;;5001260;28;20046;-76
2024/01/04 05:50:56;;;;;;;1999.90;999.90;;;4.20;99.90;;;;;;4984390;28;20042;-76
2024/01/04 05:53:22;;;;;;;1999.90;999.90;;;4.20;99.90;;;;;;4998456;28;20380;-76
2024/01/04 05:55:47;;;;;;;1999.90;999.90;;;4.30;99.90;;;;;;4986012;28;20068;-77
2024/01/04 05:58:13;;;;;;;1999.90;999.90;;;4.20;99.90;;;;;;4982519;28;20217;-77
2024/01/04 06:00:38;;;;;;;1999.90;999.90;;;4.20;99.90;;;;;;4985463;28;20497;-76
2024/01/04 06:03:04;;;;;;;1999.90;999.90;;;4.20;99.90;;;;;;4999429;28;20044;-76
2024/01/04 06:05:30;;;;;;;1999.90;999.90;;;4.20;99.90;;;;;;4984385;28;20069;-76
2024/01/04 06:07:55;;;;;;;1999.90;999.90;;;4.20;99.90;;;;;;4984675;28;20475;-76
2024/01/04 06:10:21;;;;;;;1999.90;999.90;;;4.20;99.90;;;;;;4985290;28;20030;-76
2024/01/04 06:12:47;;;;;;;1999.90;999.90;;;4.20;99.90;;;;;;4998500;28;20094;-76
2024/01/04 06:15:13;;;;;;;1999.90;999.90;;;4.10;99.90;;;;;;5007370;28;20042;-76
2024/01/04 06:17:38;;;;;;;1999.90;999.90;;;4.20;99.90;;;;;;5004647;28;20096;-76
2024/01/04 06:20:04;;;;;;;1999.90;999.90;;;4.10;99.90;;;;;;5003289;28;20116;-76
2024/01/04 06:22:30;;;;;;;1999.90;999.90;;;4.10;99.90;;;;;;4985863;28;20131;-76
2024/01/04 06:24:55;;;;;;;1999.90;999.90;;;4.10;99.90;;;;;;4984419;28;20048;-77
2024/01/04 06:27:21;;;;;;;1999.90;999.90;;;4.10;99.90;;;;;;5003248;28;20088;-76
2024/01/04 06:29:46;;;;;;;1999.90;999.90;;;4.00;99.90;;;;;;5000182;28;20052;-77
2024/01/04 06:32:12;;;;;;;1999.90;999.90;;;3.90;99.90;;;;;;5006574;28;20038;-76
2024/01/04 06:34:38;;;;;;;1999.90;999.90;;;3.90;99.90;;;;;;4985152;28;20050;-77
2024/01/04 06:37:04;;;;;;;1999.90;999.90;;;3.80;99.90;;;;;;4987712;28;20110;-78
2024/01/04 06:39:29;;;;;;;1999.90;999.90;;;3.70;99.90;;;;;;4988361;28;20034;-76
2024/01/04 06:41:56;;;;;;;1999.90;999.90;;;3.60;99.90;;;;;;4987169;28;20629;-77
2024/01/04 06:44:22;;;;;;;1999.90;999.90;;;3.60;99.90;;;;;;5023965;28;20061;-77
2024/01/04 06:46:48;;;;;;;1999.90;999.90;;;3.50;99.90;;;;;;4980325;28;20034;-76
2024/01/04 06:49:13;;;;;;;1999.90;999.90;;;3.50;99.90;;;;;;5001048;28;20049;-76
2024/01/04 06:51:39;;;;;;;1999.90;999.90;;;3.50;99.90;;;;;;4983733;28;20468;-76
2024/01/04 06:54:05;;;;;;;1999.90;999.90;;;3.40;99.90;;;;;;4984254;28;20030;-76
2024/01/04 06:56:30;;;;;;;1999.90;999.90;;;3.40;99.90;;;;;;4986622;28;20048;-77
2024/01/04 06:58:56;;;;;;;1999.90;999.90;;;3.50;99.90;;;;;;4983799;28;20669;-76
2024/01/04 07:01:21;;;;;;;1999.90;999.90;;;3.40;99.90;;;;;;4983208;28;20038;-76
2024/01/04 07:03:48;;;;;;;1999.90;999.90;;;3.40;99.90;;;;;;5001798;28;20042;-77
2024/01/04 07:06:16;;;;;;;1999.90;999.90;;;3.40;99.90;;;;;;4985276;28;20112;-75
2024/01/04 07:08:41;;;;;;;1999.90;999.90;;;3.30;99.90;;;;;;5003861;28;20131;-76
2024/01/04 07:11:07;;;;;;;1999.90;999.90;;;3.30;99.90;;;;;;5000475;28;20077;-76
2024/01/04 07:13:36;;;;;;;1999.90;999.90;;;3.30;99.90;;;;;;5000101;28;20435;-76
2024/01/04 07:16:05;;;;;;;1999.90;999.90;;;3.60;99.90;;;;;;4983235;28;20038;-77
2024/01/04 07:18:30;;;;;;;1999.90;999.90;;;3.20;99.90;;;;;;5002675;28;20054;-76
2024/01/04 07:20:56;;;;;;;1999.90;999.90;;;3.20;99.90;;;;;;5001926;28;20050;-76
2024/01/04 07:23:22;;;;;;;1999.90;999.90;;;3.10;99.90;;;;;;4984021;28;20524;-76
2024/01/04 07:25:47;;;;;;;1999.90;999.90;;;3.70;99.90;;;;;;5000711;28;20120;-77
2024/01/04 07:28:13;;;;;;;1999.90;999.90;;;3.00;99.90;;;;;;4998845;28;20384;-76
2024/01/04 07:30:38;;;;;;;1999.90;999.90;;;2.90;99.90;;;;;;4986113;28;20040;-76
2024/01/04 07:33:05;;;;;;;1999.90;999.90;;;2.90;99.90;;;;;;4986741;28;20578;-76
2024/01/04 07:35:31;;;;;;;1999.90;999.90;;;2.90;99.90;;;;;;4986242;28;20633;-76
2024/01/04 07:37:58;;;;;;;1999.90;999.90;;;2.80;99.90;;;;;;4982393;28;20042;-76
2024/01/04 07:40:24;;;;;;;1999.90;999.90;;;2.80;99.90;;;;;;5000841;28;20406;-76
2024/01/04 07:42:50;;;;;;;1999.90;999.90;;;2.80;99.90;;;;;;4998995;28;20048;-77
2024/01/04 07:45:15;;;;;;;1999.90;999.90;;;2.80;99.90;;;;;;5000078;28;20038;-77
2024/01/04 07:47:41;;;;;;;1999.90;999.90;;;2.80;99.90;;;;;;5001856;28;20053;-76
2024/01/04 07:50:07;;;;;;;1999.90;999.90;;;2.80;99.90;;;;;;4986311;28;20077;-77
2024/01/04 07:52:33;;;;;;;1999.90;999.90;;;2.80;99.90;;;;;;4983305;28;20038;-76
2024/01/04 07:54:59;;;;;;;1999.90;999.90;;;2.80;99.90;;;;;;5002956;28;20044;-77
2024/01/04 07:57:24;;;;;;;1999.90;999.90;;;2.80;99.90;;;;;;5003720;28;20443;-76
2024/01/04 07:59:50;;;;;;;1999.90;999.90;;;2.70;99.90;;;;;;4984162;28;20037;-76
2024/01/04 08:02:17;;;;;;;1999.90;999.90;;;2.70;99.90;;;;;;5003468;28;20141;-77
2024/01/04 08:04:43;;;;;;;1999.90;999.90;;;2.70;99.90;;;;;;4985669;28;20079;-77
2024/01/04 08:07:08;;;;;;;1999.90;999.90;;;2.70;99.90;;;;;;4999639;28;20117;-78
2024/01/04 08:09:34;;;;;;;1999.90;999.90;;;2.70;99.90;;;;;;5000767;28;20086;-78
2024/01/04 08:11:59;;;;;;;1999.90;999.90;;;2.70;99.90;;;;;;4985325;28;20030;-77
2024/01/04 08:14:25;;;;;;;1999.90;999.90;;;2.70;99.90;;;;;;4983183;28;20046;-77
2024/01/04 08:16:51;;;;;;;1999.90;999.90;;;2.60;99.90;;;;;;4998376;28;20037;-77
2024/01/04 08:19:17;;;;;;;1999.90;999.90;;;2.60;99.90;;;;;;4998244;28;20038;-77
2024/01/04 08:21:43;;;;;;;1999.90;999.90;;;2.60;99.90;;;;;;5001695;28;20046;-77
2024/01/04 08:24:09;;;;;;;1999.90;999.90;;;2.50;99.90;;;;;;5000324;28;20040;-78
2024/01/04 08:26:41;;;;;;;1999.90;999.90;;;2.50;99.90;;;;;;4986277;28;20226;-77
2024/01/04 08:29:07;;;;;;;1999.90;999.90;;;2.50;99.90;;;;;;5002619;28;20474;-78
2024/01/04 08:31:32;;;;;;;1999.90;999.90;;;2.40;99.90;;;;;;4985516;28;20042;-77
2024/01/04 08:33:58;;;;;;;1999.90;999.90;;;2.40;99.90;;;;;;5001944;28;20041;-77
2024/01/04 08:36:24;;;;;;;1999.90;999.90;;;2.40;99.90;;;;;;4989582;28;20117;-77
2024/01/04 08:38:49;;;;;;;1999.90;999.90;;;2.40;99.90;;;;;;4989208;28;20532;-78
2024/01/04 08:41:15;;;;;;;1999.90;999.90;;;2.40;99.90;;;;;;5001038;28;20041;-77
2024/01/04 08:43:41;;;;;;;1999.90;999.90;;;2.40;99.90;;;;;;5006668;28;20070;-77
2024/01/04 08:46:06;;;;;;;1999.90;999.90;;;2.40;99.90;;;;;;5001982;28;20034;-77
2024/01/04 08:48:32;;;;;;;1999.90;999.90;;;3.40;99.90;;;;;;5006381;28;20033;-78
2024/01/04 08:50:58;;;;;;;1999.90;999.90;;;2.40;99.90;;;;;;5002602;28;20042;-78
2024/01/04 08:53:23;;;;;;;1999.90;999.90;;;2.40;99.90;;;;;;5004756;28;20038;-79
2024/01/04 08:55:49;;;;;;;1999.90;999.90;;;2.40;99.90;;;;;;4989825;28;20454;-78
2024/01/04 08:58:15;;;;;;;1999.90;999.90;;;2.40;99.90;;;;;;5006118;28;20038;-78
2024/01/04 09:00:41;;;;;;;1999.90;999.90;;;2.40;99.90;;;;;;5005684;28;20077;-78
2024/01/04 09:03:07;;;;;;;1999.90;999.90;;;2.40;99.90;;;;;;4990762;28;20065;-78
2024/01/04 09:05:32;;;;;;;1999.90;999.90;;;2.40;99.90;;;;;;4990488;28;20041;-78
2024/01/04 09:07:58;;;;;;;1999.90;999.90;;;2.40;99.90;;;;;;4990775;28;20051;-79
2024/01/04 09:10:24;;;;;;;1999.90;999.90;;;2.40;99.90;;;;;;5002090;28;20173;-78
2024/01/04 09:12:51;;;;;;;1999.90;999.90;;;2.50;99.90;;;;;;4985645;28;20038;-78
2024/01/04 09:15:17;;;;;;;1999.90;999.90;;;2.50;99.90;;;;;;5002549;28;20038;-78
2024/01/04 09:17:45;;;;;;;1999.90;999.90;;;2.60;99.90;;;;;;4988811;28;20376;-78
2024/01/04 09:20:13;;;;;;;1999.90;999.90;;;2.70;99.90;;;;;;4998197;28;20085;-78
2024/01/04 09:22:39;;;;;;;1999.90;999.90;;;2.80;99.90;;;;;;5005812;28;20025;-78
2024/01/04 09:25:05;;;;;;;1999.90;999.90;;;2.90;99.90;;;;;;5002413;28;20118;-78
2024/01/04 09:27:31;;;;;;;1999.90;999.90;;;2.90;99.90;;;;;;4988140;28;20042;-78
2024/01/04 09:29:57;;;;;;;1999.90;999.90;;;3.00;99.90;;;;;;4999243;28;20406;-78
2024/01/04 09:32:22;;;;;;;1999.90;999.90;;;3.10;99.90;;;;;;5005372;28;20129;-77
2024/01/04 09:34:49;;;;;;;1999.90;999.90;;;3.20;99.90;;;;;;4990209;28;20495;-79
2024/01/04 09:37:16;;;;;;;1999.90;999.90;;;3.30;99.90;;;;;;4988701;28;20048;-78
2024/01/04 09:39:41;;;;;;;1999.90;999.90;;;3.50;99.90;;;;;;4990103;28;20034;-77
2024/01/04 09:42:09;;;;;;;1999.90;999.90;;;3.60;99.90;;;;;;5004404;28;20220;-78
2024/01/04 09:44:35;;;;;;;1999.90;999.90;;;3.60;99.90;;;;;;4987000;28;20553;-78
2024/01/04 09:47:08;;;;;;;1999.90;999.90;;;3.70;99.90;;;;;;4989246;28;20514;-78
2024/01/04 09:49:38;;;;;;;1999.90;999.90;;;3.80;99.90;;;;;;4989945;28;20038;-78
2024/01/04 09:52:05;;;;;;;1999.90;999.90;;;3.80;99.90;;;;;;5003873;28;20380;-78
2024/01/04 09:54:32;;;;;;;1999.90;999.90;;;3.80;99.90;;;;;;5003189;28;20081;-78
2024/01/04 09:56:59;;;;;;;1999.90;999.90;;;4.80;99.90;;;;;;4986896;28;20038;-77
2024/01/04 09:59:25;;;;;;;1999.90;999.90;;;3.80;99.90;;;;;;5001171;28;20046;-78
2024/01/04 10:01:51;;;;;;;1999.90;999.90;;;3.70;99.90;;;;;;4986903;28;20046;-79
2024/01/04 10:04:17;;;;;;;1999.90;999.90;;;3.70;99.90;;;;;;5005373;28;20486;-78
2024/01/04 10:06:44;;;;;;;1999.90;999.90;;;3.60;99.90;;;;;;4984528;28;20041;-79
2024/01/04 10:09:38;;;;;;;1999.90;999.90;;;3.60;99.90;;;;;;5003724;28;20068;-79
2024/01/04 10:12:07;;;;;;;1999.90;999.90;;;3.60;99.90;;;;;;4986737;28;20114;-78
2024/01/04 10:14:34;;;;;;;1999.90;999.90;;;3.60;99.90;;;;;;4988494;28;20042;-78
2024/01/04 10:17:00;;;;;;;1999.90;999.90;;;3.60;99.90;;;;;;5000969;28;20125;-78
2024/01/04 10:19:26;;;;;;;1999.90;999.90;;;3.60;99.90;;;;;;4988048;28;20113;-79
2024/01/04 10:21:52;;;;;;;1999.90;999.90;;;3.60;99.90;;;;;;4985608;28;20034;-79
2024/01/04 10:24:25;;;;;;;1999.90;999.90;;;3.60;99.90;;;;;;5003595;28;20061;-78
2024/01/04 10:26:56;;;;;;;1999.90;999.90;;;3.60;99.90;;;;;;5002353;28;20090;-79
2024/01/04 10:29:23;;;;;;;1999.90;999.90;;;4.00;99.90;;;;;;5006785;28;20041;-79
2024/01/04 10:31:57;;;;;;;1999.90;999.90;;;4.30;99.90;;;;;;4986703;28;20041;-78
2024/01/04 10:34:25;;;;;;;1999.90;999.90;;;3.60;99.90;;;;;;4988674;28;20038;-79
2024/01/04 10:36:50;;;;;;;1999.90;999.90;;;3.60;99.90;;;;;;4988882;28;20033;-78
2024/01/04 10:39:22;;;;;;;1999.90;999.90;;;3.60;99.90;;;;;;4991273;28;20562;-78
2024/01/04 10:42:01;;;;;;;1999.90;999.90;;;3.70;99.90;;;;;;4988726;28;20088;-80
2024/01/04 10:44:29;;;;;;;1999.90;999.90;;;3.70;99.90;;;;;;4984115;28;20095;-78
2024/01/04 10:47:04;;;;;;;1999.90;999.90;;;3.80;99.90;;;;;;5002437;28;20096;-77
2024/01/04 10:49:29;;;;;;;1999.90;999.90;;;3.80;99.90;;;;;;5003699;28;20176;-78
2024/01/04 10:52:01;;;;;;;1999.90;999.90;;;3.90;99.90;;;;;;5005261;28;20076;-79
2024/01/04 10:54:34;;;;;;;1999.90;999.90;;;4.00;99.90;;;;;;5002845;28;20038;-78
2024/01/04 10:57:01;;;;;;;1999.90;999.90;;;4.10;99.90;;;;;;4986975;28;20044;-78
2024/01/04 10:59:29;;;;;;;1999.90;999.90;;;4.20;99.90;;;;;;4990741;28;20065;-78
2024/01/04 11:01:56;;;;;;;1999.90;999.90;;;4.30;99.90;;;;;;4983217;28;20113;-78
2024/01/04 11:04:23;;;;;;;1999.90;999.90;;;4.30;99.90;;;;;;5002986;28;20049;-79
2024/01/04 11:06:52;;;;;;;1999.90;999.90;;;4.40;99.90;;;;;;5002845;28;20674;-78
2024/01/04 11:09:22;;;;;;;1999.90;999.90;;;4.50;99.90;;;;;;4984712;28;20503;-79
2024/01/04 11:11:52;;;;;;;1999.90;999.90;;;4.60;99.90;;;;;;4987000;28;20038;-78
2024/01/04 11:14:25;;;;;;;1999.90;999.90;;;4.70;99.90;;;;;;4991319;28;20038;-79
2024/01/04 11:17:08;;;;;;;1999.90;999.90;;;4.80;99.90;;;;;;4980218;28;20066;-78
2024/01/04 11:20:22;;;;;;;1999.90;999.90;;;4.70;99.90;;;;;;5002759;28;20054;-79
2024/01/04 11:22:59;;;;;;;1999.90;999.90;;;4.80;99.90;;;;;;4981772;28;20078;-78
2024/01/04 11:26:01;;;;;;;1999.90;999.90;;;4.90;99.90;;;;;;4984224;28;20530;-78
2024/01/04 11:28:27;;;;;;;1999.90;999.90;;;5.00;99.90;;;;;;4988757;28;20050;-78
2024/01/04 11:30:53;;;;;;;1999.90;999.90;;;5.10;99.90;;;;;;5002066;28;20057;-77
2024/01/04 11:33:21;;;;;;;1999.90;999.90;;;5.10;99.90;;;;;;4998656;28;20084;-78
2024/01/04 11:35:51;;;;;;;1999.90;999.90;;;5.10;99.90;;;;;;5003567;28;20093;-78
2024/01/04 11:38:35;;;;;;;1999.90;999.90;;;5.10;99.90;;;;;;5002174;28;20039;-78
2024/01/04 11:41:01;;;;;;;1999.90;999.90;;;5.00;99.90;;;;;;5000593;28;20080;-79
2024/01/04 11:43:41;;;;;;;1999.90;999.90;;;5.00;99.90;;;;;;4983278;28;20038;-77
2024/01/04 11:46:24;;;;;;;1999.90;999.90;;;5.00;99.90;;;;;;5002910;28;20057;-77
2024/01/04 11:48:53;;;;;;;1999.90;999.90;;;5.10;99.90;;;;;;4986683;28;20038;-77
2024/01/04 11:51:33;;;;;;;1999.90;999.90;;;5.20;99.90;;;;;;4999436;28;20042;-78
2024/01/04 11:53:59;;;;;;;1999.90;999.90;;;5.20;99.90;;;;;;4988459;28;20046;-79
2024/01/04 11:56:25;;;;;;;1999.90;999.90;;;5.30;99.90;;;;;;4999352;28;20134;-78
2024/01/04 11:58:50;;;;;;;1999.90;999.90;;;5.30;99.90;;;;;;4986618;28;20038;-78
2024/01/04 12:01:23;;;;;;;1999.90;999.90;;;5.30;99.90;;;;;;4997261;28;20074;-78
2024/01/04 12:03:51;;;;;;;1999.90;999.90;;;5.40;99.90;;;;;;4981235;28;20041;-79
2024/01/04 12:06:20;;;;;;;1999.90;999.90;;;5.40;99.90;;;;;;5001437;28;20049;-79